Time;durP1;ratioP1;P1;durP2;ratioP2;P2;SDS_P1;SDS_P2;PMS_P1;PMS_P2;Temp;Humidity;BMP_temperature;BMP_pressure;BME280_temperature;BME280_humidity;BME280_pressure;Samples;Min_cycle;Max_cycle;Signal;HPM_P1;HPM_P2
2023/06/12 00:01:21;;;;;;;2.15;0.68;;;;;;;11.22;57.70;102840.94;5038490;28;20060;-82
2023/06/12 00:03:50;;;;;;;1.85;0.60;;;;;;;11.21;57.60;102838.28;5038699;28;20063;-82
2023/06/12 00:06:18;;;;;;;0.90;0.60;;;;;;;11.18;57.53;102840.88;5038455;28;20060;-81
2023/06/12 00:08:45;;;;;;;1.60;0.80;;;;;;;11.15;57.86;102846.94;5040178;28;20500;-82
2023/06/12 00:11:13;;;;;;;1.45;0.70;;;;;;;11.13;57.51;102842.56;5041557;28;20141;-82
2023/06/12 00:13:41;;;;;;;4.70;0.80;;;;;;;11.10;57.47;102845.13;5042169;28;20143;-81
2023/06/12 00:16:08;;;;;;;1.00;0.68;;;;;;;11.01;58.15;102841.56;5042163;28;20049;-81
2023/06/12 00:18:38;;;;;;;3.78;0.80;;;;;;;10.99;58.05;102845.00;5045411;28;20045;-81
2023/06/12 00:21:08;;;;;;;2.65;1.08;;;;;;;10.94;58.43;102831.84;5043260;28;20041;-82
2023/06/12 00:23:35;;;;;;;0.90;0.70;;;;;;;10.98;58.19;102845.84;5039218;28;20045;-81
2023/06/12 00:26:02;;;;;;;2.22;0.80;;;;;;;10.96;58.33;102843.22;5041812;28;20052;-82
2023/06/12 00:28:29;;;;;;;2.63;0.60;;;;;;;10.93;58.26;102845.81;5041391;28;20107;-82
2023/06/12 00:30:56;;;;;;;2.00;0.70;;;;;;;10.91;58.15;102844.91;5041288;28;20064;-82
2023/06/12 00:33:23;;;;;;;4.55;0.90;;;;;;;10.89;58.72;102846.59;5042803;28;20071;-81
2023/06/12 00:35:51;;;;;;;1.20;0.80;;;;;;;10.87;58.42;102850.94;5039096;28;20049;-82
2023/06/12 00:38:20;;;;;;;1.05;0.70;;;;;;;10.84;58.39;102850.00;5041038;28;20048;-82
2023/06/12 00:40:47;;;;;;;3.25;0.80;;;;;;;10.81;58.42;102845.63;5038421;28;20045;-82
2023/06/12 00:43:15;;;;;;;0.75;0.55;;;;;;;10.64;58.50;102815.75;5041401;28;20060;-82
2023/06/12 00:45:42;;;;;;;1.98;0.90;;;;;;;10.75;58.44;102837.69;5040589;28;20069;-82
2023/06/12 00:48:09;;;;;;;1.65;0.70;;;;;;;10.72;58.95;102845.50;5037984;28;20041;-82
2023/06/12 00:50:37;;;;;;;1.50;0.82;;;;;;;10.65;58.81;102841.06;5040682;28;20045;-82
2023/06/12 00:53:04;;;;;;;1.15;0.98;;;;;;;10.62;59.27;102839.28;5043545;28;20052;-82
2023/06/12 00:55:33;;;;;;;2.70;0.82;;;;;;;10.63;58.96;102845.38;5043034;28;20060;-82
2023/06/12 00:58:01;;;;;;;2.08;0.90;;;;;;;10.60;59.19;102845.31;5040881;28;20667;-82
2023/06/12 01:00:28;;;;;;;2.17;0.90;;;;;;;10.56;59.15;102849.63;5042557;28;20511;-81
2023/06/12 01:03:03;;;;;;;1.00;0.80;;;;;;;10.54;59.08;102840.88;5043718;28;20482;-81
2023/06/12 01:05:33;;;;;;;1.52;1.40;;;;;;;10.47;59.68;102834.72;5040926;28;20053;-81
2023/06/12 01:08:16;;;;;;;2.40;0.82;;;;;;;10.48;58.95;102846.91;5036344;28;20057;-81
2023/06/12 01:10:47;;;;;;;2.05;0.70;;;;;;;10.45;59.07;102846.84;5042595;28;20049;-81
2023/06/12 01:13:16;;;;;;;1.00;0.70;;;;;;;10.43;59.00;102847.69;5036346;28;20099;-83
2023/06/12 01:15:44;;;;;;;1.60;0.88;;;;;;;10.40;59.37;102856.34;5043040;28;20087;-81
2023/06/12 01:18:10;;;;;;;15.27;1.20;;;;;;;10.36;59.34;102851.94;5041984;28;20144;-81
2023/06/12 01:20:39;;;;;;;1.67;0.90;;;;;;;10.36;59.74;102862.41;5044740;28;20478;-82
2023/06/12 01:23:12;;;;;;;1.20;0.90;;;;;;;10.14;59.18;102821.94;5037052;28;20398;-82
2023/06/12 01:26:12;;;;;;;0.90;0.70;;;;;;;10.27;59.10;102847.44;5044621;28;20088;-82
2023/06/12 01:29:13;;;;;;;1.17;0.82;;;;;;;10.27;59.13;102842.19;5035665;28;20056;-82
2023/06/12 01:31:56;;;;;;;2.10;0.75;;;;;;;10.18;59.38;102843.78;5026048;28;20044;-82
2023/06/12 01:34:28;;;;;;;1.15;0.85;;;;;;;10.19;59.20;102846.41;5040136;28;20078;-82
2023/06/12 01:37:05;;;;;;;3.17;0.98;;;;;;;10.13;59.50;102844.59;5040081;28;20059;-82
2023/06/12 01:39:36;;;;;;;1.30;1.20;;;;;;;10.16;59.73;102848.97;5030727;28;20045;-81
2023/06/12 01:42:04;;;;;;;1.40;0.82;;;;;;;9.96;59.65;102825.16;5035247;28;20064;-82
2023/06/12 01:44:33;;;;;;;1.73;1.25;;;;;;;10.04;59.79;102831.34;5039232;28;20448;-82
2023/06/12 01:47:02;;;;;;;1.15;0.90;;;;;;;10.09;59.71;102853.19;5042472;28;20045;-82
2023/06/12 01:49:29;;;;;;;1.75;1.05;;;;;;;10.06;59.66;102847.94;5039525;28;20060;-82
2023/06/12 01:51:56;;;;;;;2.40;0.88;;;;;;;10.03;59.93;102849.63;5039886;28;20049;-82
2023/06/12 01:54:23;;;;;;;2.80;0.80;;;;;;;10.00;59.62;102850.44;5039426;28;20056;-82
2023/06/12 01:56:50;;;;;;;1.42;0.80;;;;;;;9.97;60.13;102839.06;5039897;28;20057;-81
2023/06/12 01:59:18;;;;;;;1.65;0.80;;;;;;;9.97;59.91;102846.91;5037459;28;20102;-81
2023/06/12 02:01:45;;;;;;;1.27;1.10;;;;;;;9.92;60.23;102844.22;5041881;28;20044;-77
2023/06/12 02:04:13;;;;;;;1.23;0.93;;;;;;;9.89;60.25;102841.53;5037396;28;20412;-77
2023/06/12 02:06:40;;;;;;;2.00;0.90;;;;;;;9.90;60.18;102848.50;5039914;28;20504;-77
2023/06/12 02:09:07;;;;;;;1.15;0.82;;;;;;;9.88;60.70;102853.72;5041460;28;20484;-77
2023/06/12 02:11:34;;;;;;;2.17;0.90;;;;;;;9.74;60.32;102825.63;5040327;28;20107;-77
2023/06/12 02:14:01;;;;;;;1.15;0.93;;;;;;;9.81;60.24;102845.75;5028830;28;20407;-76
2023/06/12 02:16:27;;;;;;;1.17;1.02;;;;;;;9.80;60.75;102857.94;5035107;28;20072;-77
2023/06/12 02:18:55;;;;;;;2.20;0.93;;;;;;;9.78;60.69;102853.53;5040841;28;20056;-76
2023/06/12 02:21:24;;;;;;;1.90;1.15;;;;;;;9.78;60.40;102858.75;5038733;28;20041;-77
2023/06/12 02:23:51;;;;;;;2.00;0.90;;;;;;;9.76;60.42;102857.84;5021711;28;20756;-77
2023/06/12 02:26:18;;;;;;;1.83;0.88;;;;;;;9.68;60.32;102853.38;5037440;28;20049;-76
2023/06/12 02:28:44;;;;;;;1.25;1.10;;;;;;;9.72;61.00;102864.72;5038050;28;20048;-77
2023/06/12 02:31:12;;;;;;;2.08;0.90;;;;;;;9.68;60.58;102858.59;5036831;28;20075;-77
2023/06/12 02:33:39;;;;;;;2.40;1.02;;;;;;;9.69;61.05;102862.94;5035849;28;20045;-77
2023/06/12 02:36:07;;;;;;;1.75;1.08;;;;;;;9.67;61.36;102858.53;5035301;28;20291;-77
2023/06/12 02:38:36;;;;;;;2.70;0.90;;;;;;;9.66;61.33;102864.63;5038498;28;20049;-77
2023/06/12 02:41:03;;;;;;;1.30;0.73;;;;;;;9.60;61.16;102860.16;5036750;28;20049;-77
2023/06/12 02:43:29;;;;;;;1.55;1.02;;;;;;;9.64;61.14;102861.09;5040054;28;20056;-77
2023/06/12 02:45:56;;;;;;;1.73;1.05;;;;;;;9.65;61.05;102865.47;5036250;28;20049;-76
2023/06/12 02:48:23;;;;;;;3.78;1.17;;;;;;;9.63;61.29;102869.78;5037563;28;20045;-77
2023/06/12 02:50:50;;;;;;;2.58;1.00;;;;;;;9.62;61.75;102873.22;5040199;28;20413;-81
2023/06/12 02:53:17;;;;;;;2.90;1.20;;;;;;;9.61;61.64;102874.97;5041044;28;20042;-81
2023/06/12 02:55:46;;;;;;;2.58;0.68;;;;;;;9.59;62.01;102863.63;5037536;28;20506;-82
2023/06/12 02:58:13;;;;;;;1.90;1.05;;;;;;;9.61;61.87;102872.34;5038546;28;20056;-82
2023/06/12 03:00:40;;;;;;;3.97;1.08;;;;;;;9.45;62.25;102842.50;5038547;28;20053;-82
2023/06/12 03:03:08;;;;;;;1.80;1.20;;;;;;;9.59;62.10;102863.63;5039932;28;20049;-81
2023/06/12 03:05:36;;;;;;;3.20;1.20;;;;;;;9.62;62.06;102866.31;5038642;28;20418;-82
2023/06/12 03:08:03;;;;;;;1.10;0.82;;;;;;;9.62;62.26;102865.41;5042218;28;20067;-81
2023/06/12 03:10:30;;;;;;;2.97;1.10;;;;;;;9.63;62.51;102867.19;5037939;28;20049;-82
2023/06/12 03:12:59;;;;;;;2.47;1.38;;;;;;;9.65;63.07;102870.69;5041759;28;20045;-81
2023/06/12 03:15:26;;;;;;;3.60;1.17;;;;;;;9.66;62.94;102865.50;5035415;28;20053;-82
2023/06/12 03:17:53;;;;;;;4.03;1.20;;;;;;;9.67;62.74;102866.38;5037451;28;20106;-82
2023/06/12 03:20:20;;;;;;;4.45;1.40;;;;;;;9.67;63.38;102868.97;5038450;28;20565;-82
2023/06/12 03:22:47;;;;;;;2.70;1.00;;;;;;;9.69;63.76;102869.91;5040323;28;20119;-82
2023/06/12 03:25:18;;;;;;;3.38;1.05;;;;;;;9.71;63.48;102864.72;5037324;28;20086;-82
2023/06/12 03:27:45;;;;;;;3.05;1.10;;;;;;;9.78;63.83;102877.88;5038682;28;20072;-82
2023/06/12 03:30:14;;;;;;;2.70;1.25;;;;;;;9.72;64.24;102856.91;5038748;28;20041;-82
2023/06/12 03:32:41;;;;;;;1.45;0.95;;;;;;;9.84;64.05;102877.13;5035960;28;20052;-82
2023/06/12 03:35:09;;;;;;;1.35;0.98;;;;;;;9.89;64.42;102875.47;5036951;28;20477;-82
2023/06/12 03:37:36;;;;;;;4.10;1.25;;;;;;;9.93;65.15;102866.84;5037158;28;20670;-83
2023/06/12 03:40:04;;;;;;;1.85;1.17;;;;;;;9.97;64.84;102868.66;5040074;28;20049;-82
2023/06/12 03:42:31;;;;;;;3.38;1.23;;;;;;;9.96;65.15;102859.09;5038350;28;20487;-82
2023/06/12 03:44:58;;;;;;;3.10;1.00;;;;;;;10.07;65.45;102865.34;5036520;28;20055;-82
2023/06/12 03:47:26;;;;;;;3.35;1.02;;;;;;;10.16;65.93;102871.59;5042528;28;20511;-81
2023/06/12 03:49:54;;;;;;;1.98;1.30;;;;;;;10.21;65.72;102865.59;5043062;28;20048;-82
2023/06/12 03:52:21;;;;;;;8.65;1.20;;;;;;;10.22;66.21;102859.53;5041615;28;20048;-82
2023/06/12 03:54:49;;;;;;;3.05;1.10;;;;;;;10.37;66.10;102874.59;5043419;28;20037;-82
2023/06/12 03:57:16;;;;;;;1.63;1.10;;;;;;;10.35;66.43;102850.16;5044198;28;20045;-82
2023/06/12 03:59:43;;;;;;;4.38;1.60;;;;;;;10.46;66.51;102858.19;5041842;28;20048;-83
2023/06/12 04:02:10;;;;;;;1.90;1.25;;;;;;;10.63;66.31;102871.50;5039214;28;20505;-82
2023/06/12 04:04:38;;;;;;;2.42;1.05;;;;;;;10.63;66.61;102855.81;5042212;28;20160;-82
2023/06/12 04:07:06;;;;;;;1.38;1.20;;;;;;;10.56;66.32;102837.44;5042816;28;20045;-82
2023/06/12 04:09:33;;;;;;;1.85;1.27;;;;;;;10.95;66.21;102878.06;5042463;28;20067;-82
2023/06/12 04:12:00;;;;;;;3.08;1.00;;;;;;;11.08;66.35;102878.25;5041110;28;20053;-83
2023/06/12 04:14:27;;;;;;;3.20;1.13;;;;;;;11.18;66.76;102882.72;5042947;28;20056;-83
2023/06/12 04:16:54;;;;;;;2.42;1.10;;;;;;;11.28;66.67;102879.38;5042333;28;20068;-83
2023/06/12 04:19:21;;;;;;;3.67;1.40;;;;;;;11.40;66.90;102879.50;5039104;28;20226;-83
2023/06/12 04:21:49;;;;;;;1.25;0.80;;;;;;;11.56;67.06;102887.56;5046645;28;20075;-83
2023/06/12 04:24:16;;;;;;;2.58;0.90;;;;;;;11.71;66.16;102887.72;5042170;28;20057;-83
2023/06/12 04:26:46;;;;;;;4.22;0.68;;;;;;;11.85;66.35;102887.84;5044914;28;20057;-83
2023/06/12 04:29:13;;;;;;;0.93;0.47;;;;;;;11.90;65.71;102860.88;5044472;28;20570;-84
2023/06/12 04:31:40;;;;;;;1.65;0.65;;;;;;;12.19;65.81;102888.22;5042266;28;20041;-83
2023/06/12 04:34:07;;;;;;;0.95;0.80;;;;;;;12.36;65.69;102882.22;5042289;28;20061;-83
2023/06/12 04:36:37;;;;;;;1.80;0.60;;;;;;;12.41;65.18;102861.31;5041147;28;20049;-83
2023/06/12 04:39:10;;;;;;;3.63;0.70;;;;;;;12.71;65.23;102871.09;5041405;28;20106;-83
2023/06/12 04:41:38;;;;;;;2.38;0.80;;;;;;;12.91;64.88;102873.84;5038722;28;20547;-83
2023/06/12 04:44:06;;;;;;;3.08;0.70;;;;;;;12.94;64.77;102852.00;5043545;28;20527;-82
2023/06/12 04:46:33;;;;;;;3.58;0.70;;;;;;;13.25;64.68;102876.63;5041600;28;20046;-83
2023/06/12 04:49:00;;;;;;;0.60;0.55;;;;;;;13.44;64.24;102872.38;5039505;28;20053;-82
2023/06/12 04:51:27;;;;;;;4.47;0.55;;;;;;;13.58;63.64;102869.78;5038964;28;20065;-83
2023/06/12 04:53:55;;;;;;;1.40;0.60;;;;;;;13.83;62.96;102868.97;5041568;28;20490;-82
2023/06/12 04:56:23;;;;;;;0.93;0.60;;;;;;;13.96;62.75;102859.31;5041859;28;20139;-89
2023/06/12 04:58:51;;;;;;;1.40;0.70;;;;;;;14.23;62.00;102870.72;5048296;28;20043;-94
2023/06/12 05:01:21;;;;;;;0.77;0.40;;;;;;;14.37;61.26;102868.94;5042063;28;20059;-91
2023/06/12 05:03:49;;;;;;;1.10;0.88;;;;;;;14.59;60.64;102878.59;5043410;28;20424;-91
2023/06/12 05:06:17;;;;;;;0.77;0.50;;;;;;;14.77;59.76;102871.56;5049337;28;20421;-91
2023/06/12 05:08:44;;;;;;;1.05;0.50;;;;;;;14.95;59.16;102873.28;5044752;28;20057;-91
2023/06/12 05:11:12;;;;;;;0.80;0.40;;;;;;;15.05;58.20;102860.09;5045603;28;20059;-90
2023/06/12 05:13:41;;;;;;;0.60;0.40;;;;;;;15.21;57.39;102847.72;5043690;28;20140;-91
2023/06/12 05:16:08;;;;;;;1.50;0.40;;;;;;;15.47;56.38;102868.66;5042403;28;20045;-87
2023/06/12 05:18:35;;;;;;;0.88;0.50;;;;;;;15.65;56.16;102872.06;5044549;28;20534;-87
2023/06/12 05:21:03;;;;;;;0.50;0.30;;;;;;;15.88;55.50;102875.47;5041439;28;20738;-89
2023/06/12 05:23:30;;;;;;;2.47;0.40;;;;;;;15.84;54.52;102835.97;5034394;28;20049;-88
2023/06/12 05:25:57;;;;;;;4.80;0.40;;;;;;;16.25;53.89;102871.66;5044926;28;20045;-89
2023/06/12 05:28:25;;;;;;;0.50;0.30;;;;;;;16.17;53.79;102829.53;5041213;28;20060;-88
2023/06/12 05:30:53;;;;;;;2.22;0.40;;;;;;;16.58;52.95;102873.09;5044957;28;20085;-91
2023/06/12 05:33:20;;;;;;;1.13;0.30;;;;;;;16.71;51.60;102864.19;5043180;28;20053;-89
2023/06/12 05:35:49;;;;;;;0.98;0.47;;;;;;;16.89;51.61;102860.47;5043697;28;20628;-88
2023/06/12 05:38:16;;;;;;;2.03;0.20;;;;;;;17.01;50.83;102862.09;5040921;28;20055;-88
2023/06/12 05:40:43;;;;;;;4.43;0.30;;;;;;;17.17;49.83;102876.88;5045901;28;20045;-88
2023/06/12 05:43:09;;;;;;;2.38;0.30;;;;;;;17.29;50.19;102857.34;5044224;28;20063;-87
2023/06/12 05:45:36;;;;;;;2.50;0.50;;;;;;;17.42;49.49;102858.94;5044093;28;20053;-88
2023/06/12 05:48:06;;;;;;;1.73;0.30;;;;;;;17.54;48.46;102852.59;5039285;28;20055;-89
2023/06/12 05:50:33;;;;;;;0.45;0.40;;;;;;;17.62;47.22;102856.00;5039245;28;20045;-88
2023/06/12 05:53:00;;;;;;;0.30;0.30;;;;;;;17.74;47.69;102854.94;5042000;28;20145;-87
2023/06/12 05:55:27;;;;;;;2.28;0.40;;;;;;;17.79;47.15;102845.22;5038042;28;20049;-88
2023/06/12 05:57:54;;;;;;;0.55;0.30;;;;;;;17.93;46.75;102856.44;5040890;28;20136;-88
2023/06/12 06:00:22;;;;;;;2.90;0.30;;;;;;;18.00;46.29;102851.91;5042971;28;20053;-92
2023/06/12 06:02:49;;;;;;;1.67;0.30;;;;;;;18.09;45.69;102856.19;5040500;28;20049;-89
2023/06/12 06:05:18;;;;;;;7.28;0.30;;;;;;;18.09;44.85;102838.53;5046827;28;20045;-88
2023/06/12 06:07:49;;;;;;;1.65;0.40;;;;;;;18.22;44.92;102851.56;5046392;28;20053;-88
2023/06/12 06:10:16;;;;;;;2.60;0.30;;;;;;;18.27;44.17;102847.03;5039968;28;20052;-89
2023/06/12 06:12:43;;;;;;;4.97;0.38;;;;;;;18.26;43.53;102842.66;5039582;28;20130;-89
2023/06/12 06:15:11;;;;;;;0.60;0.20;;;;;;;18.35;43.63;102853.06;5042545;28;20049;-89
2023/06/12 06:17:38;;;;;;;0.95;0.30;;;;;;;18.35;43.26;102839.84;5041116;28;20049;-88
2023/06/12 06:20:06;;;;;;;0.40;0.25;;;;;;;18.39;42.75;102838.91;5042142;28;20052;-88
2023/06/12 06:22:34;;;;;;;1.73;0.30;;;;;;;18.35;42.66;102829.25;5042335;28;20049;-91
2023/06/12 06:25:01;;;;;;;2.17;0.30;;;;;;;18.29;41.87;102817.03;5040606;28;20045;-89
2023/06/12 06:27:28;;;;;;;2.30;0.30;;;;;;;18.35;41.57;102822.19;5039955;28;20424;-90
2023/06/12 06:29:55;;;;;;;2.20;0.30;;;;;;;18.39;41.69;102828.31;5039267;28;20382;-91
2023/06/12 06:32:22;;;;;;;2.05;0.40;;;;;;;18.51;41.48;102841.31;5042457;28;20045;-88
2023/06/12 06:34:49;;;;;;;0.50;0.28;;;;;;;18.51;40.59;102835.16;5036317;28;20062;-89
2023/06/12 06:37:17;;;;;;;1.25;0.30;;;;;;;18.40;40.21;102817.69;5038702;28;20413;-89
2023/06/12 06:39:46;;;;;;;2.97;0.30;;;;;;;18.58;40.71;102842.06;5040936;28;20056;-89
2023/06/12 06:42:13;;;;;;;3.80;0.30;;;;;;;18.59;40.56;102846.47;5043838;28;20053;-87
2023/06/12 06:44:40;;;;;;;0.40;0.20;;;;;;;18.59;40.30;102836.75;5039808;28;20055;-87
2023/06/12 06:47:11;;;;;;;0.43;0.30;;;;;;;18.56;39.59;102826.22;5045208;28;20067;-89
2023/06/12 06:49:38;;;;;;;1.38;0.30;;;;;;;18.69;39.37;102844.50;5038814;28;20144;-85
2023/06/12 06:52:05;;;;;;;0.43;0.25;;;;;;;18.73;39.58;102839.13;5036555;28;20580;-84
2023/06/12 06:54:32;;;;;;;5.68;0.40;;;;;;;18.76;39.52;102832.94;5038975;28;20049;-80
2023/06/12 06:57:01;;;;;;;0.30;0.30;;;;;;;18.80;39.03;102824.91;5040958;28;20303;-78
2023/06/12 06:59:28;;;;;;;2.33;0.30;;;;;;;18.93;39.36;102841.41;5039365;28;20048;-77
2023/06/12 07:01:55;;;;;;;12.63;0.40;;;;;;;18.84;39.08;102801.88;5040228;28;20440;-81
2023/06/12 07:04:22;;;;;;;6.75;0.30;;;;;;;19.07;37.98;102828.75;5036650;28;20051;-80
2023/06/12 07:06:49;;;;;;;0.60;0.30;;;;;;;19.15;38.34;102827.72;5037944;28;20083;-80
2023/06/12 07:09:18;;;;;;;7.68;0.40;;;;;;;19.26;38.03;102831.84;5035620;28;20053;-80
2023/06/12 07:11:45;;;;;;;0.93;0.30;;;;;;;19.08;37.44;102780.16;5035950;28;20048;-80
2023/06/12 07:14:13;;;;;;;11.45;0.40;;;;;;;19.42;37.68;102826.22;5034665;28;21191;-80
2023/06/12 07:16:40;;;;;;;5.55;0.30;;;;;;;19.50;37.96;102819.84;5035294;28;20042;-81
2023/06/12 07:19:07;;;;;;;1.75;0.35;;;;;;;19.61;37.33;102824.00;5032160;28;20056;-80
2023/06/12 07:21:35;;;;;;;3.95;0.38;;;;;;;19.66;36.82;102817.72;5037147;28;20053;-80
2023/06/12 07:24:02;;;;;;;0.20;0.20;;;;;;;19.81;36.72;102826.22;5034482;28;20128;-78
2023/06/12 07:26:29;;;;;;;4.07;0.30;;;;;;;19.89;36.45;102817.16;5035572;28;20053;-79
2023/06/12 07:28:56;;;;;;;3.40;0.32;;;;;;;20.04;36.34;102829.19;5038135;28;20128;-78
2023/06/12 07:31:24;;;;;;;4.47;0.30;;;;;;;20.14;36.04;102828.00;5035765;28;20048;-77
2023/06/12 07:33:51;;;;;;;6.60;0.32;;;;;;;20.17;35.83;102814.66;5036382;28;20505;-78
2023/06/12 07:36:18;;;;;;;1.65;0.20;;;;;;;20.33;36.14;102825.75;5034566;28;20057;-78
2023/06/12 07:38:45;;;;;;;0.25;0.20;;;;;;;20.42;36.61;102822.84;5038326;28;20795;-77
2023/06/12 07:41:12;;;;;;;0.35;0.30;;;;;;;20.43;36.49;102805.13;5036890;28;20076;-76
2023/06/12 07:43:39;;;;;;;0.70;0.20;;;;;;;20.59;36.02;102822.41;5035298;28;20045;-80
2023/06/12 07:46:06;;;;;;;0.85;0.30;;;;;;;20.66;36.09;102815.13;5037454;28;20129;-81
2023/06/12 07:48:35;;;;;;;0.40;0.30;;;;;;;20.63;35.35;102786.03;5036763;28;20128;-81
2023/06/12 07:51:02;;;;;;;2.47;0.30;;;;;;;20.87;35.79;102806.56;5038195;28;20049;-79
2023/06/12 07:53:30;;;;;;;1.08;0.20;;;;;;;20.95;35.47;102808.13;5037874;28;20092;-79
2023/06/12 07:55:57;;;;;;;0.52;0.28;;;;;;;21.06;34.98;102800.69;5040128;28;20041;-78
2023/06/12 07:58:24;;;;;;;1.85;0.30;;;;;;;21.16;34.83;102812.78;5038494;28;20514;-82
2023/06/12 08:00:55;;;;;;;3.08;0.20;;;;;;;21.23;35.49;102802.81;5035072;28;20064;-80
2023/06/12 08:03:25;;;;;;;0.70;0.20;;;;;;;21.31;35.65;102800.81;5035136;28;20045;-77
2023/06/12 08:05:53;;;;;;;0.40;0.30;;;;;;;21.36;34.76;102803.34;5037257;28;20057;-78
2023/06/12 08:08:21;;;;;;;1.17;0.20;;;;;;;21.37;34.12;102799.78;5034609;28;20417;-79
2023/06/12 08:10:48;;;;;;;0.77;0.30;;;;;;;21.43;34.02;102796.91;5039580;28;20053;-82
2023/06/12 08:13:15;;;;;;;0.63;0.20;;;;;;;21.30;33.58;102773.34;5034855;28;20047;-82
2023/06/12 08:15:42;;;;;;;1.48;0.20;;;;;;;21.50;33.77;102793.16;5037507;28;20045;-83
2023/06/12 08:18:10;;;;;;;1.25;0.28;;;;;;;21.35;33.52;102759.94;5039453;28;20051;-82
2023/06/12 08:20:37;;;;;;;1.25;0.20;;;;;;;21.58;34.16;102793.78;5034494;28;20061;-83
2023/06/12 08:23:06;;;;;;;2.08;0.20;;;;;;;21.51;33.55;102778.94;5038428;28;20051;-80
2023/06/12 08:25:33;;;;;;;0.20;0.17;;;;;;;21.51;33.01;102785.13;5040404;28;20183;-77
2023/06/12 08:28:00;;;;;;;0.60;0.25;;;;;;;21.57;33.56;102786.69;5040282;28;20049;-77
2023/06/12 08:30:28;;;;;;;0.40;0.20;;;;;;;21.59;33.04;102786.66;5041018;28;20056;-78
2023/06/12 08:32:55;;;;;;;1.95;0.20;;;;;;;21.61;33.05;102792.81;5037080;28;20076;-76
2023/06/12 08:35:22;;;;;;;1.08;0.52;;;;;;;21.60;32.73;102794.63;5037648;28;20050;-76
2023/06/12 08:37:49;;;;;;;0.40;0.17;;;;;;;21.60;33.03;102789.28;5037161;28;20502;-76
2023/06/12 08:40:18;;;;;;;0.60;0.20;;;;;;;21.60;33.12;102783.97;5042844;28;20099;-77
2023/06/12 08:42:50;;;;;;;1.23;0.30;;;;;;;21.61;32.92;102785.69;5037829;28;20049;-76
2023/06/12 08:45:17;;;;;;;1.60;0.38;;;;;;;21.58;32.63;102787.59;5042426;28;20049;-76
2023/06/12 08:47:47;;;;;;;0.20;0.20;;;;;;;21.45;32.47;102763.19;5040218;28;20390;-75
2023/06/12 08:50:16;;;;;;;0.32;0.20;;;;;;;21.53;32.88;102782.41;5040416;28;20590;-76
2023/06/12 08:52:44;;;;;;;2.30;0.20;;;;;;;21.55;32.86;102778.78;5041012;28;20076;-73
2023/06/12 08:55:13;;;;;;;1.20;0.43;;;;;;;21.54;33.01;102768.19;5037841;28;20580;-76
2023/06/12 08:57:42;;;;;;;0.20;0.20;;;;;;;21.62;33.13;102774.13;5038391;28;20081;-77
2023/06/12 09:00:12;;;;;;;0.68;0.20;;;;;;;21.62;32.90;102768.81;5038770;28;20453;-77
2023/06/12 09:02:44;;;;;;;0.20;0.20;;;;;;;21.64;32.61;102777.63;5035407;28;20258;-77
2023/06/12 09:05:15;;;;;;;0.20;0.20;;;;;;;21.62;32.51;102768.81;5043142;28;20114;-77
2023/06/12 09:07:45;;;;;;;9.88;0.35;;;;;;;21.64;32.74;102769.63;5035785;28;20046;-77
2023/06/12 09:10:11;;;;;;;1.27;0.20;;;;;;;21.63;32.77;102770.56;5036395;28;20041;-74
2023/06/12 09:12:43;;;;;;;0.50;0.20;;;;;;;21.62;32.79;102768.81;5038521;28;20051;-76
2023/06/12 09:15:17;;;;;;;1.55;0.20;;;;;;;21.62;32.94;102766.16;5041031;28;20110;-77
2023/06/12 09:17:47;;;;;;;1.70;0.20;;;;;;;21.62;33.19;102766.16;5037057;28;20413;-76
2023/06/12 09:20:17;;;;;;;1.52;0.20;;;;;;;21.63;32.88;102762.59;5034796;28;20047;-77
2023/06/12 09:22:44;;;;;;;0.43;0.20;;;;;;;21.59;32.93;102758.28;5036195;28;20620;-77
2023/06/12 09:25:11;;;;;;;1.63;0.28;;;;;;;21.56;32.75;102761.91;5035855;28;20505;-77
2023/06/12 09:27:48;;;;;;;0.90;0.20;;;;;;;21.55;32.51;102772.63;5039678;28;20493;-76
2023/06/12 09:30:16;;;;;;;2.70;0.30;;;;;;;21.52;32.82;102756.75;5034986;28;20122;-76
2023/06/12 09:32:45;;;;;;;0.20;0.20;;;;;;;21.50;32.20;102751.47;5035621;28;20052;-77
2023/06/12 09:35:13;;;;;;;0.22;0.15;;;;;;;21.47;32.30;102758.69;5035042;28;20132;-76
2023/06/12 09:37:41;;;;;;;1.25;0.98;;;;;;;21.47;32.31;102758.69;5038489;28;20513;-75
2023/06/12 09:40:10;;;;;;;0.47;0.20;;;;;;;21.43;32.59;102746.41;5027056;28;20041;-77
2023/06/12 09:42:38;;;;;;;0.35;0.20;;;;;;;21.46;32.33;102751.63;5030594;28;20453;-75
2023/06/12 09:45:12;;;;;;;0.10;0.10;;;;;;;21.29;32.34;102722.91;5038063;28;20041;-74
2023/06/12 09:47:46;;;;;;;0.30;0.10;;;;;;;21.36;32.51;102734.22;5041263;28;20094;-74
2023/06/12 09:50:13;;;;;;;2.85;0.20;;;;;;;21.48;32.39;102749.78;5038201;28;20052;-74
2023/06/12 09:52:42;;;;;;;1.30;0.20;;;;;;;21.49;32.23;102748.88;5039309;28;20045;-76
2023/06/12 09:55:10;;;;;;;0.32;0.15;;;;;;;21.49;32.45;102748.88;5036543;28;20045;-76
2023/06/12 09:57:40;;;;;;;0.50;0.20;;;;;;;21.47;32.40;102742.75;5034757;28;20053;-77
2023/06/12 10:00:11;;;;;;;0.90;0.20;;;;;;;21.45;32.38;102748.09;5039267;28;20128;-74
2023/06/12 10:02:41;;;;;;;0.35;0.10;;;;;;;21.45;32.48;102745.44;5037354;28;20455;-77
2023/06/12 10:05:17;;;;;;;2.15;0.20;;;;;;;21.44;32.45;102737.53;5040986;28;20102;-73
2023/06/12 10:07:48;;;;;;;1.95;0.20;;;;;;;21.39;32.98;102732.34;5035428;28;20048;-77
2023/06/12 10:10:16;;;;;;;0.73;0.20;;;;;;;21.42;33.37;102732.25;5036937;28;20060;-77
2023/06/12 10:12:44;;;;;;;0.52;0.20;;;;;;;21.34;33.62;102712.97;5038373;28;21186;-74
2023/06/12 10:15:13;;;;;;;0.55;0.20;;;;;;;21.34;33.08;102715.63;5039244;28;20052;-76
2023/06/12 10:17:41;;;;;;;4.40;0.30;;;;;;;21.28;33.46;102719.38;5036792;28;20045;-76
2023/06/12 10:20:11;;;;;;;0.40;0.20;;;;;;;21.36;33.55;102724.44;5036779;28;20049;-76
2023/06/12 10:22:38;;;;;;;0.32;0.20;;;;;;;21.37;33.75;102728.00;5040375;28;20107;-76
2023/06/12 10:25:07;;;;;;;1.48;0.20;;;;;;;21.34;33.95;102727.16;5037526;28;21043;-75
2023/06/12 10:27:34;;;;;;;3.20;0.82;;;;;;;21.25;33.75;102716.81;5039919;28;20422;-75
2023/06/12 10:30:01;;;;;;;0.10;0.10;;;;;;;21.29;34.01;102722.91;5034123;28;20041;-75
2023/06/12 10:32:32;;;;;;;0.90;0.20;;;;;;;21.24;34.38;102707.09;5034733;28;20045;-76
2023/06/12 10:35:01;;;;;;;0.73;0.20;;;;;;;21.11;34.10;102687.16;5034781;28;20505;-76
2023/06/12 10:37:32;;;;;;;1.30;0.20;;;;;;;21.29;33.56;102720.25;5041083;28;20512;-75
2023/06/12 10:40:11;;;;;;;0.88;0.20;;;;;;;21.27;33.64;102704.34;5037888;28;20044;-75
2023/06/12 10:42:47;;;;;;;0.35;0.20;;;;;;;21.28;34.07;102715.84;5036344;28;20052;-75
2023/06/12 10:45:20;;;;;;;1.77;0.13;;;;;;;21.10;33.99;102682.78;5039509;28;20398;-76
2023/06/12 10:48:11;;;;;;;1.25;0.20;;;;;;;21.28;34.20;102711.38;5033910;28;20050;-76
2023/06/12 10:50:41;;;;;;;0.20;0.10;;;;;;;21.26;33.19;102707.94;5040286;28;20049;-75
2023/06/12 10:53:13;;;;;;;0.47;0.20;;;;;;;21.23;32.77;102705.38;5038660;28;20056;-78
2023/06/12 10:55:41;;;;;;;0.20;0.10;;;;;;;21.21;32.77;102701.03;5039055;28;20516;-73
2023/06/12 10:58:12;;;;;;;0.38;0.20;;;;;;;21.16;32.25;102693.19;5035177;28;20049;-75
2023/06/12 11:00:45;;;;;;;0.70;0.10;;;;;;;21.14;32.29;102692.38;5034172;28;20206;-75
2023/06/12 11:03:16;;;;;;;0.28;0.20;;;;;;;21.07;32.33;102683.72;5038168;28;20137;-75
2023/06/12 11:05:47;;;;;;;0.13;0.10;;;;;;;21.06;32.04;102683.78;5038788;28;20052;-75
2023/06/12 11:08:16;;;;;;;0.10;0.10;;;;;;;21.07;32.42;102688.19;5031962;28;20038;-75
2023/06/12 11:10:43;;;;;;;0.20;0.10;;;;;;;21.03;32.67;102686.53;5030650;28;20045;-75
2023/06/12 11:13:10;;;;;;;0.30;0.22;;;;;;;20.97;32.68;102684.06;5034010;28;20045;-77
2023/06/12 11:15:44;;;;;;;2.13;0.20;;;;;;;21.01;33.32;102675.09;5038300;28;20051;-77
2023/06/12 11:18:12;;;;;;;1.15;0.20;;;;;;;21.01;33.85;102681.28;5035899;28;20057;-74
2023/06/12 11:20:39;;;;;;;2.08;0.10;;;;;;;21.03;33.77;102683.88;5037849;28;20043;-75
2023/06/12 11:23:06;;;;;;;0.20;0.20;;;;;;;21.01;33.59;102675.09;5037985;28;20053;-75
2023/06/12 11:25:35;;;;;;;2.50;0.30;;;;;;;21.00;33.48;102670.69;5033378;28;20048;-74
2023/06/12 11:28:04;;;;;;;1.55;0.20;;;;;;;20.97;33.80;102661.03;5017691;28;20052;-75
2023/06/12 11:30:31;;;;;;;0.55;0.20;;;;;;;20.98;33.80;102661.91;5035057;28;20077;-73
2023/06/12 11:32:58;;;;;;;2.60;0.30;;;;;;;20.87;33.77;102655.16;5037623;28;20047;-76